createdAt,value
2019-04-03T00:00:29.375Z,100.00
2019-04-03T00:02:58.837Z,100.00
2019-04-03T00:05:28.155Z,100.00
2019-04-03T00:07:57.510Z,100.00
2019-04-03T00:10:26.911Z,100.00
2019-04-03T00:12:56.500Z,100.00
2019-04-03T00:15:26.052Z,100.00
2019-04-03T00:17:55.343Z,100.00
2019-04-03T00:20:24.737Z,100.00
2019-04-03T00:22:54.437Z,100.00
2019-04-03T00:25:23.759Z,100.00
2019-04-03T00:27:53.047Z,100.00
2019-04-03T00:30:22.930Z,100.00
2019-04-03T00:32:53.508Z,100.00
2019-04-03T00:35:23.926Z,100.00
2019-04-03T00:37:53.908Z,100.00
2019-04-03T00:40:24.719Z,100.00
2019-04-03T00:42:54.856Z,100.00
2019-04-03T00:45:25.014Z,100.00
2019-04-03T00:47:55.773Z,100.00
2019-04-03T00:50:26.940Z,100.00
2019-04-03T00:52:57.498Z,100.00
2019-04-03T00:55:27.233Z,100.00
2019-04-03T00:57:56.922Z,100.00
2019-04-03T01:00:27.152Z,100.00
2019-04-03T01:02:58.872Z,100.00
2019-04-03T01:05:29.017Z,100.00
2019-04-03T01:07:59.815Z,100.00
2019-04-03T01:10:30.290Z,100.00
2019-04-03T01:13:02.080Z,100.00
2019-04-03T01:15:32.101Z,100.00
2019-04-03T01:18:04.637Z,100.00
2019-04-03T01:20:32.866Z,100.00
2019-04-03T01:23:02.173Z,100.00
2019-04-03T01:25:31.456Z,100.00
2019-04-03T01:28:00.845Z,100.00
2019-04-03T01:30:30.518Z,100.00
2019-04-03T01:32:59.789Z,100.00
2019-04-03T01:35:29.285Z,100.00
2019-04-03T01:37:58.699Z,100.00
2019-04-03T01:40:27.987Z,100.00
2019-04-03T01:42:57.293Z,100.00
2019-04-03T01:45:26.618Z,100.00
2019-04-03T01:47:57.788Z,100.00
2019-04-03T01:50:28.628Z,100.00
2019-04-03T01:52:58.041Z,100.00
2019-04-03T01:55:27.612Z,100.00
2019-04-03T01:57:57.123Z,100.00
2019-04-03T02:00:26.391Z,100.00
2019-04-03T02:02:55.887Z,99.80
2019-04-03T02:05:25.249Z,99.18
2019-04-03T02:07:54.571Z,99.52
2019-04-03T02:10:24.967Z,99.14
2019-04-03T02:12:54.554Z,98.75
2019-04-03T02:15:23.974Z,98.01
2019-04-03T02:17:55.127Z,97.92
2019-04-03T02:20:26.532Z,97.53
2019-04-03T02:22:55.539Z,96.21
2019-04-03T02:25:24.832Z,96.47
2019-04-03T02:27:54.218Z,97.03
2019-04-03T02:30:24.016Z,96.89
2019-04-03T02:32:56.347Z,96.76
2019-04-03T02:35:24.921Z,97.53
2019-04-03T02:37:54.198Z,96.85
2019-04-03T02:40:23.518Z,96.63
2019-04-03T02:42:53.714Z,96.74
2019-04-03T02:45:24.550Z,96.61
2019-04-03T02:47:54.424Z,96.14
2019-04-03T02:50:25.535Z,96.08
2019-04-03T02:52:58.286Z,95.91
2019-04-03T02:55:27.470Z,96.08
2019-04-03T02:57:57.363Z,96.09
2019-04-03T03:00:27.090Z,96.31
2019-04-03T03:02:56.599Z,97.12
2019-04-03T03:05:28.109Z,97.37
2019-04-03T03:07:58.059Z,96.35
2019-04-03T03:10:30.914Z,97.11
2019-04-03T03:13:01.826Z,97.76
2019-04-03T03:15:31.498Z,97.56
2019-04-03T03:18:01.523Z,97.73
2019-04-03T03:20:32.444Z,97.99
2019-04-03T03:23:03.111Z,98.18
2019-04-03T03:25:34.161Z,97.54
2019-04-03T03:28:04.399Z,97.02
2019-04-03T03:30:44.291Z,97.33
2019-04-03T03:33:30.859Z,97.28
2019-04-03T03:35:43.786Z,96.83
2019-04-03T03:38:10.755Z,96.27
2019-04-03T03:40:42.127Z,96.65
2019-04-03T03:43:11.755Z,97.60
2019-04-03T03:45:41.996Z,98.05
2019-04-03T03:48:11.973Z,98.28
2019-04-03T03:50:42.429Z,97.27
2019-04-03T03:53:13.286Z,97.21
2019-04-03T03:55:43.718Z,97.79
2019-04-03T03:58:14.132Z,98.65
2019-04-03T04:00:44.537Z,98.62
2019-04-03T04:03:13.943Z,99.17
2019-04-03T04:05:43.330Z,100.00
2019-04-03T04:08:13.425Z,100.00
2019-04-03T04:10:43.961Z,100.00
2019-04-03T04:13:15.751Z,100.00
2019-04-03T04:15:45.288Z,100.00
2019-04-03T04:18:15.548Z,99.32
2019-04-03T04:20:48.018Z,99.70
2019-04-03T04:23:18.643Z,99.76
2019-04-03T04:25:47.970Z,100.00
2019-04-03T04:28:18.507Z,99.89
2019-04-03T04:30:49.710Z,100.00
2019-04-03T04:33:19.517Z,100.00
2019-04-03T04:35:51.323Z,100.00
2019-04-03T04:38:19.895Z,100.00
2019-04-03T04:40:49.450Z,100.00
2019-04-03T04:43:19.041Z,100.00
2019-04-03T04:45:48.393Z,100.00
2019-04-03T04:48:20.338Z,100.00
2019-04-03T04:50:48.940Z,100.00
2019-04-03T04:53:18.245Z,100.00
2019-04-03T04:55:47.813Z,100.00
2019-04-03T04:58:17.245Z,100.00
2019-04-03T05:00:47.714Z,100.00
2019-04-03T05:03:17.175Z,100.00
2019-04-03T05:05:46.888Z,100.00
2019-04-03T05:08:16.290Z,100.00
2019-04-03T05:10:48.395Z,100.00
2019-04-03T05:13:16.970Z,100.00
2019-04-03T05:15:46.605Z,100.00
2019-04-03T05:18:15.969Z,100.00
2019-04-03T05:20:45.421Z,100.00
2019-04-03T05:23:15.219Z,100.00
2019-04-03T05:25:44.906Z,100.00
2019-04-03T05:28:14.256Z,100.00
2019-04-03T05:30:43.625Z,100.00
2019-04-03T05:33:13.004Z,100.00
2019-04-03T05:35:42.315Z,100.00
2019-04-03T05:38:11.593Z,100.00
2019-04-03T05:40:40.911Z,100.00
2019-04-03T05:43:10.301Z,100.00
2019-04-03T05:45:41.703Z,100.00
2019-04-03T05:48:13.382Z,100.00
2019-04-03T05:50:43.208Z,100.00
2019-04-03T05:53:13.011Z,100.00
2019-04-03T05:55:42.767Z,100.00
2019-04-03T05:58:12.063Z,100.00
2019-04-03T06:00:42.235Z,100.00
2019-04-03T06:03:11.541Z,100.00
2019-04-03T06:05:43.243Z,100.00
2019-04-03T06:08:12.293Z,100.00
2019-04-03T06:10:42.138Z,100.00
2019-04-03T06:13:11.418Z,100.00
2019-04-03T06:15:41.034Z,100.00
2019-04-03T06:18:10.506Z,100.00
2019-04-03T06:20:42.565Z,100.00
2019-04-03T06:23:11.549Z,100.00
2019-04-03T06:25:41.508Z,100.00
2019-04-03T06:28:13.361Z,100.00
2019-04-03T06:30:42.229Z,100.00
2019-04-03T06:33:11.627Z,100.00
2019-04-03T06:35:41.032Z,100.00
2019-04-03T06:38:10.370Z,100.00
2019-04-03T06:40:39.845Z,100.00
2019-04-03T06:43:09.245Z,100.00
2019-04-03T06:45:38.543Z,100.00
2019-04-03T06:48:07.818Z,100.00
2019-04-03T06:50:38.004Z,100.00
2019-04-03T06:53:07.545Z,100.00
2019-04-03T06:55:36.861Z,100.00
2019-04-03T06:58:06.460Z,100.00
2019-04-03T07:00:35.821Z,100.00
2019-04-03T07:03:05.382Z,100.00
2019-04-03T07:05:34.627Z,100.00
2019-04-03T07:08:05.091Z,100.00
2019-04-03T07:10:36.512Z,100.00
2019-04-03T07:13:06.480Z,100.00
2019-04-03T07:15:35.764Z,100.00
2019-04-03T07:18:06.504Z,100.00
2019-04-03T07:20:36.290Z,100.00
2019-04-03T07:23:05.602Z,100.00
2019-04-03T07:25:35.735Z,100.00
2019-04-03T07:28:08.376Z,100.00
2019-04-03T07:30:36.762Z,100.00
2019-04-03T07:33:06.423Z,100.00
2019-04-03T07:35:36.200Z,100.00
2019-04-03T07:38:05.936Z,100.00
2019-04-03T07:40:35.490Z,100.00
2019-04-03T07:43:05.107Z,100.00
2019-04-03T07:45:34.639Z,100.00
2019-04-03T07:48:06.700Z,100.00
2019-04-03T07:50:36.967Z,100.00
2019-04-03T07:53:06.224Z,100.00
2019-04-03T07:55:35.618Z,100.00
2019-04-03T07:58:05.088Z,100.00
2019-04-03T08:00:36.298Z,100.00
2019-04-03T08:03:06.038Z,100.00
2019-04-03T08:05:35.673Z,100.00
2019-04-03T08:08:05.284Z,100.00
2019-04-03T08:10:37.516Z,100.00
2019-04-03T08:13:06.636Z,100.00
2019-04-03T08:15:36.989Z,100.00
2019-04-03T08:18:06.490Z,100.00
2019-04-03T08:20:36.034Z,100.00
2019-04-03T08:23:06.295Z,100.00
2019-04-03T08:25:36.978Z,100.00
2019-04-03T08:28:06.842Z,100.00
2019-04-03T08:30:37.051Z,100.00
2019-04-03T08:33:16.469Z,100.00
2019-04-03T08:35:38.620Z,100.00
2019-04-03T08:38:08.217Z,100.00
2019-04-03T08:40:38.040Z,100.00
2019-04-03T08:43:07.426Z,100.00
2019-04-03T08:45:38.482Z,100.00
2019-04-03T08:48:08.079Z,100.00
2019-04-03T08:50:37.714Z,100.00
2019-04-03T08:53:08.663Z,100.00
2019-04-03T08:55:38.788Z,100.00
2019-04-03T08:58:08.511Z,100.00
2019-04-03T09:00:38.206Z,100.00
2019-04-03T09:03:07.472Z,100.00
2019-04-03T09:05:36.765Z,100.00
2019-04-03T09:08:06.366Z,100.00
2019-04-03T09:10:37.087Z,100.00
2019-04-03T09:13:16.835Z,100.00
2019-04-03T09:15:38.035Z,100.00
2019-04-03T09:18:07.693Z,100.00
2019-04-03T09:20:37.259Z,100.00
2019-04-03T09:23:06.552Z,100.00
2019-04-03T09:25:35.890Z,100.00
2019-04-03T09:28:05.234Z,100.00
2019-04-03T09:30:34.741Z,100.00
2019-04-03T09:33:04.122Z,100.00
2019-04-03T09:35:33.627Z,100.00
2019-04-03T09:38:03.196Z,100.00
2019-04-03T09:40:32.718Z,100.00
2019-04-03T09:43:02.570Z,100.00
2019-04-03T09:45:32.295Z,100.00
2019-04-03T09:48:04.570Z,100.00
2019-04-03T09:50:32.724Z,100.00
2019-04-03T09:53:02.880Z,100.00
2019-04-03T09:55:35.882Z,100.00
2019-04-03T09:58:04.238Z,100.00
2019-04-03T10:00:33.715Z,100.00
2019-04-03T10:03:05.390Z,100.00
2019-04-03T10:05:34.353Z,100.00
2019-04-03T10:08:03.684Z,100.00
2019-04-03T10:10:33.283Z,100.00
2019-04-03T10:13:02.598Z,100.00
2019-04-03T10:15:32.052Z,100.00
2019-04-03T10:18:01.383Z,100.00
2019-04-03T10:20:30.861Z,100.00
2019-04-03T10:23:01.001Z,100.00
2019-04-03T10:25:30.621Z,100.00
2019-04-03T10:28:00.603Z,100.00
2019-04-03T10:30:30.710Z,100.00
2019-04-03T10:33:01.060Z,100.00
2019-04-03T10:35:30.633Z,100.00
2019-04-03T10:38:02.013Z,100.00
2019-04-03T10:40:31.293Z,100.00
2019-04-03T10:43:04.653Z,100.00
2019-04-03T10:45:32.657Z,100.00
2019-04-03T10:48:02.358Z,100.00
2019-04-03T10:50:31.734Z,100.00
2019-04-03T10:53:01.511Z,100.00
2019-04-03T10:55:31.386Z,100.00
2019-04-03T10:58:02.438Z,100.00
2019-04-03T11:00:32.718Z,100.00
2019-04-03T11:03:03.026Z,100.00
2019-04-03T11:05:32.732Z,100.00
2019-04-03T11:08:02.623Z,100.00
2019-04-03T11:10:31.965Z,100.00
2019-04-03T11:13:03.293Z,99.82
2019-04-03T11:15:32.735Z,100.00
2019-04-03T11:18:02.124Z,99.65
2019-04-03T11:20:31.719Z,96.59
2019-04-03T11:23:06.825Z,98.74
2019-04-03T11:25:32.879Z,100.00
2019-04-03T11:28:05.165Z,100.00
2019-04-03T11:30:33.934Z,99.94
2019-04-03T11:33:03.685Z,100.00
2019-04-03T11:35:33.074Z,100.00
2019-04-03T11:38:12.025Z,100.00
2019-04-03T11:40:33.558Z,100.00
2019-04-03T11:43:03.559Z,99.46
2019-04-03T11:45:33.002Z,99.89
2019-04-03T11:48:02.559Z,100.00
2019-04-03T11:50:32.413Z,100.00
2019-04-03T11:53:04.876Z,100.00
2019-04-03T11:55:33.501Z,100.00
2019-04-03T11:58:03.598Z,98.60
2019-04-03T12:00:35.228Z,98.53
2019-04-03T12:03:05.596Z,100.00
2019-04-03T12:05:35.121Z,99.75
2019-04-03T12:08:04.740Z,100.00
2019-04-03T12:10:35.128Z,100.00
2019-04-03T12:13:05.995Z,100.00
2019-04-03T12:15:35.689Z,100.00
2019-04-03T12:18:06.522Z,100.00
2019-04-03T12:20:36.491Z,98.84
2019-04-03T12:23:06.561Z,99.32
2019-04-03T12:25:38.252Z,96.83
2019-04-03T12:28:07.580Z,95.90
2019-04-03T12:30:37.175Z,93.79
2019-04-03T12:33:06.974Z,95.04
2019-04-03T12:35:36.326Z,93.93
2019-04-03T12:38:05.884Z,95.23
2019-04-03T12:40:35.707Z,96.28
2019-04-03T12:43:05.370Z,94.40
2019-04-03T12:45:35.053Z,94.45
2019-04-03T12:48:04.493Z,93.02
2019-04-03T12:50:33.774Z,91.30
2019-04-03T12:53:03.250Z,93.69
2019-04-03T12:55:33.588Z,93.11
2019-04-03T12:58:05.115Z,92.15
2019-04-03T13:00:34.087Z,92.15
2019-04-03T13:03:03.604Z,91.89
2019-04-03T13:05:36.305Z,93.10
2019-04-03T13:08:04.594Z,93.19
2019-04-03T13:10:41.483Z,93.12
2019-04-03T13:13:05.622Z,94.21
2019-04-03T13:15:37.095Z,92.94
2019-04-03T13:18:05.953Z,92.76
2019-04-03T13:20:36.661Z,92.63
2019-04-03T13:23:06.323Z,93.37
2019-04-03T13:25:35.619Z,95.00
2019-04-03T13:28:05.104Z,95.04
2019-04-03T13:30:34.481Z,93.05
2019-04-03T13:33:06.613Z,96.21
2019-04-03T13:35:35.482Z,96.91
2019-04-03T13:38:04.941Z,95.13
2019-04-03T13:40:34.910Z,94.86
2019-04-03T13:43:06.099Z,95.29
2019-04-03T13:45:35.760Z,94.50
2019-04-03T13:48:05.442Z,94.23
2019-04-03T13:50:34.776Z,94.73
2019-04-03T13:53:04.142Z,96.01
2019-04-03T13:55:34.564Z,95.82
2019-04-03T13:58:04.864Z,96.78
2019-04-03T14:00:34.162Z,96.22
2019-04-03T14:03:03.830Z,96.09
2019-04-03T14:05:33.933Z,97.43
2019-04-03T14:08:06.642Z,96.18
2019-04-03T14:10:35.155Z,95.93
2019-04-03T14:13:04.926Z,94.96
2019-04-03T14:15:34.586Z,94.76
2019-04-03T14:18:04.345Z,94.73
2019-04-03T14:20:37.903Z,94.60
2019-04-03T14:23:07.711Z,94.18
2019-04-03T14:25:39.050Z,95.62
2019-04-03T14:28:08.377Z,96.18
2019-04-03T14:30:37.702Z,96.27
2019-04-03T14:33:07.081Z,93.46
2019-04-03T14:35:48.957Z,94.80
2019-04-03T14:38:07.790Z,93.00
2019-04-03T14:40:37.400Z,92.17
2019-04-03T14:43:06.728Z,92.99
2019-04-03T14:45:38.661Z,94.45
2019-04-03T14:48:07.290Z,93.13
2019-04-03T14:50:38.250Z,100.00
2019-04-03T14:53:07.802Z,93.83
2019-04-03T14:55:47.206Z,96.21
2019-04-03T14:58:08.233Z,98.28
2019-04-03T15:00:37.843Z,100.00
2019-04-03T15:03:07.375Z,100.00
2019-04-03T15:05:38.900Z,100.00
2019-04-03T15:08:08.143Z,100.00
2019-04-03T15:10:38.049Z,100.00
2019-04-03T15:13:07.374Z,100.00
2019-04-03T15:15:37.105Z,100.00
2019-04-03T15:18:09.308Z,100.00
2019-04-03T15:20:37.820Z,100.00
2019-04-03T15:23:07.260Z,100.00
2019-04-03T15:25:36.595Z,100.00
2019-04-03T15:28:06.073Z,100.00
2019-04-03T15:30:35.468Z,100.00
2019-04-03T15:33:05.286Z,100.00
2019-04-03T15:35:34.673Z,100.00
2019-04-03T15:38:04.235Z,100.00
2019-04-03T15:40:34.176Z,100.00
2019-04-03T15:43:03.961Z,100.00
2019-04-03T15:45:33.358Z,100.00
2019-04-03T15:48:02.968Z,100.00
2019-04-03T15:50:35.363Z,100.00
2019-04-03T15:53:03.583Z,100.00
2019-04-03T15:55:34.851Z,100.00
2019-04-03T15:58:04.319Z,100.00
2019-04-03T16:00:36.000Z,100.00
2019-04-03T16:03:07.387Z,100.00
2019-04-03T16:05:37.254Z,100.00
2019-04-03T16:08:07.797Z,100.00
2019-04-03T16:10:37.235Z,100.00
2019-04-03T16:13:07.000Z,100.00
2019-04-03T16:15:36.702Z,100.00
2019-04-03T16:18:08.112Z,100.00
2019-04-03T16:20:37.360Z,100.00
2019-04-03T16:23:07.020Z,100.00
2019-04-03T16:25:36.880Z,100.00
2019-04-03T16:28:06.828Z,100.00
2019-04-03T16:30:36.450Z,100.00
2019-04-03T16:33:18.355Z,100.00
2019-04-03T16:35:37.410Z,100.00
2019-04-03T16:38:07.140Z,100.00
2019-04-03T16:40:37.801Z,100.00
2019-04-03T16:43:08.053Z,100.00
2019-04-03T16:45:39.012Z,100.00
2019-04-03T16:48:09.214Z,100.00
2019-04-03T16:50:38.668Z,100.00
2019-04-03T16:53:08.240Z,100.00
2019-04-03T16:55:37.587Z,100.00
2019-04-03T16:58:06.961Z,100.00
2019-04-03T17:00:38.084Z,100.00
2019-04-03T17:03:07.350Z,100.00
2019-04-03T17:05:36.632Z,100.00
2019-04-03T17:08:06.478Z,100.00
2019-04-03T17:10:35.811Z,100.00
2019-04-03T17:13:05.202Z,100.00
2019-04-03T17:15:35.760Z,100.00
2019-04-03T17:18:05.490Z,100.00
2019-04-03T17:20:34.812Z,100.00
2019-04-03T17:23:05.356Z,100.00
2019-04-03T17:25:46.312Z,100.00
2019-04-03T17:28:09.436Z,100.00
2019-04-03T17:30:37.234Z,100.00
2019-04-03T17:33:06.774Z,100.00
2019-04-03T17:35:36.479Z,100.00
2019-04-03T17:38:06.228Z,100.00
2019-04-03T17:40:36.577Z,100.00
2019-04-03T17:43:06.648Z,100.00
2019-04-03T17:45:37.520Z,100.00
2019-04-03T17:48:06.933Z,100.00
2019-04-03T17:50:36.391Z,100.00
2019-04-03T17:53:06.602Z,100.00
2019-04-03T17:55:36.774Z,100.00
2019-04-03T17:58:06.072Z,100.00
2019-04-03T18:00:35.700Z,100.00
2019-04-03T18:03:07.219Z,100.00
2019-04-03T18:05:36.548Z,100.00
2019-04-03T18:08:06.070Z,100.00
2019-04-03T18:10:35.454Z,100.00
2019-04-03T18:13:05.059Z,100.00
2019-04-03T18:15:35.141Z,100.00
2019-04-03T18:18:05.160Z,100.00
2019-04-03T18:20:35.232Z,100.00
2019-04-03T18:23:04.672Z,100.00
2019-04-03T18:25:34.496Z,100.00
2019-04-03T18:28:05.376Z,100.00
2019-04-03T18:30:35.387Z,100.00
2019-04-03T18:33:05.998Z,100.00
2019-04-03T18:35:35.876Z,100.00
2019-04-03T18:38:07.767Z,100.00
2019-04-03T18:40:36.761Z,100.00
2019-04-03T18:43:06.109Z,100.00
2019-04-03T18:45:36.062Z,100.00
2019-04-03T18:48:05.401Z,100.00
2019-04-03T18:50:35.236Z,100.00
2019-04-03T18:53:05.513Z,100.00
2019-04-03T18:55:35.178Z,100.00
2019-04-03T18:58:04.580Z,100.00
2019-04-03T19:00:34.518Z,100.00
2019-04-03T19:03:06.041Z,100.00
2019-04-03T19:05:35.863Z,100.00
2019-04-03T19:08:12.875Z,100.00
2019-04-03T19:10:36.714Z,100.00
2019-04-03T19:13:06.144Z,100.00
2019-04-03T19:15:36.514Z,100.00
2019-04-03T19:18:19.031Z,100.00
2019-04-03T19:20:39.559Z,100.00
2019-04-03T19:23:10.831Z,100.00
2019-04-03T19:25:39.649Z,100.00
2019-04-03T19:28:08.977Z,100.00
2019-04-03T19:30:38.605Z,100.00
2019-04-03T19:33:07.967Z,100.00
2019-04-03T19:35:38.256Z,100.00
2019-04-03T19:38:07.675Z,100.00
2019-04-03T19:40:37.068Z,100.00
2019-04-03T19:43:06.703Z,100.00
2019-04-03T19:45:36.381Z,100.00
2019-04-03T19:48:05.887Z,100.00
2019-04-03T19:50:35.295Z,100.00
2019-04-03T19:53:04.595Z,100.00
2019-04-03T19:55:33.911Z,100.00
2019-04-03T19:58:03.395Z,100.00
2019-04-03T20:00:33.112Z,100.00
2019-04-03T20:03:03.948Z,100.00
2019-04-03T20:05:33.670Z,100.00
2019-04-03T20:08:03.806Z,100.00
2019-04-03T20:10:33.801Z,100.00
2019-04-03T20:13:03.807Z,100.00
2019-04-03T20:15:33.082Z,100.00
2019-04-03T20:18:02.406Z,100.00
2019-04-03T20:20:33.631Z,100.00
2019-04-03T20:23:03.126Z,100.00
2019-04-03T20:25:32.750Z,100.00
2019-04-03T20:28:02.392Z,100.00
2019-04-03T20:30:32.840Z,100.00
2019-04-03T20:33:02.815Z,100.00
2019-04-03T20:35:32.213Z,100.00
2019-04-03T20:38:01.729Z,100.00
2019-04-03T20:40:32.028Z,100.00
2019-04-03T20:43:02.193Z,100.00
2019-04-03T20:45:31.705Z,100.00
2019-04-03T20:48:01.201Z,100.00
2019-04-03T20:50:30.935Z,100.00
2019-04-03T20:53:00.282Z,100.00
2019-04-03T20:55:29.686Z,100.00
2019-04-03T20:57:59.103Z,100.00
2019-04-03T21:00:28.700Z,100.00
2019-04-03T21:02:58.013Z,100.00
2019-04-03T21:05:27.306Z,100.00
2019-04-03T21:07:56.708Z,100.00
2019-04-03T21:10:26.037Z,100.00
2019-04-03T21:12:55.611Z,100.00
2019-04-03T21:15:25.244Z,100.00
2019-04-03T21:17:54.552Z,100.00
2019-04-03T21:20:24.340Z,100.00
2019-04-03T21:22:54.223Z,100.00
2019-04-03T21:25:23.734Z,100.00
2019-04-03T21:27:53.052Z,100.00
2019-04-03T21:30:24.053Z,100.00
2019-04-03T21:32:53.878Z,100.00
2019-04-03T21:35:23.208Z,100.00
2019-04-03T21:37:52.828Z,100.00
2019-04-03T21:40:22.155Z,100.00
2019-04-03T21:42:51.570Z,100.00
2019-04-03T21:45:20.889Z,100.00
2019-04-03T21:47:50.641Z,100.00
2019-04-03T21:50:20.051Z,100.00
2019-04-03T21:52:49.436Z,100.00
2019-04-03T21:55:18.844Z,100.00
2019-04-03T21:57:48.830Z,100.00
2019-04-03T22:00:23.071Z,100.00
2019-04-03T22:02:52.670Z,100.00
2019-04-03T22:05:22.986Z,100.00
2019-04-03T22:07:53.564Z,100.00
2019-04-03T22:10:22.876Z,100.00
2019-04-03T22:12:52.275Z,100.00
2019-04-03T22:15:21.631Z,100.00
2019-04-03T22:17:52.596Z,100.00
2019-04-03T22:20:22.863Z,100.00
2019-04-03T22:22:53.128Z,100.00
2019-04-03T22:25:22.913Z,100.00
2019-04-03T22:27:52.869Z,100.00
2019-04-03T22:30:22.321Z,100.00
2019-04-03T22:32:52.136Z,100.00
2019-04-03T22:35:21.731Z,100.00
2019-04-03T22:37:51.556Z,100.00
2019-04-03T22:40:21.129Z,100.00
2019-04-03T22:42:50.935Z,100.00
2019-04-03T22:45:20.691Z,100.00
2019-04-03T22:47:50.159Z,100.00
2019-04-03T22:50:19.462Z,100.00
2019-04-03T22:52:49.039Z,100.00
2019-04-03T22:55:18.331Z,100.00
2019-04-03T22:57:50.336Z,100.00
2019-04-03T23:00:20.000Z,100.00
2019-04-03T23:02:49.337Z,100.00
2019-04-03T23:05:18.688Z,100.00
2019-04-03T23:07:47.999Z,100.00
2019-04-03T23:10:17.550Z,100.00
2019-04-03T23:12:46.919Z,100.00
2019-04-03T23:15:16.210Z,100.00
2019-04-03T23:17:45.787Z,100.00
2019-04-03T23:20:15.482Z,100.00
2019-04-03T23:22:44.794Z,100.00
2019-04-03T23:25:14.096Z,100.00
2019-04-03T23:27:43.603Z,100.00
2019-04-03T23:30:13.366Z,100.00
2019-04-03T23:32:45.743Z,100.00
2019-04-03T23:35:14.153Z,100.00
2019-04-03T23:37:43.471Z,100.00
2019-04-03T23:40:13.907Z,100.00
2019-04-03T23:42:43.492Z,100.00
2019-04-03T23:45:14.009Z,100.00
2019-04-03T23:47:46.704Z,100.00
2019-04-03T23:50:15.157Z,100.00
2019-04-03T23:52:44.465Z,100.00
2019-04-03T23:55:13.781Z,100.00
2019-04-03T23:57:43.549Z,100.00
